createdAt,value
2023-03-08T00:00:48.999Z,57.11
2023-03-08T00:03:15.508Z,56.79
2023-03-08T00:05:42.196Z,57.19
2023-03-08T00:08:08.792Z,56.80
2023-03-08T00:10:35.469Z,56.94
2023-03-08T00:13:01.974Z,57.20
2023-03-08T00:15:28.457Z,56.55
2023-03-08T00:17:54.960Z,56.83
2023-03-08T00:20:21.516Z,56.83
2023-03-08T00:22:48.026Z,56.83
2023-03-08T00:25:16.607Z,56.20
2023-03-08T00:27:43.303Z,56.87
2023-03-08T00:30:10.370Z,57.26
2023-03-08T00:32:36.902Z,57.30
2023-03-08T00:35:03.520Z,56.64
2023-03-08T00:37:30.551Z,57.28
2023-03-08T00:39:57.026Z,56.75
2023-03-08T00:42:23.756Z,56.72
2023-03-08T00:44:50.250Z,56.70
2023-03-08T00:47:16.725Z,57.08
2023-03-08T00:49:43.795Z,57.61
2023-03-08T00:52:10.405Z,56.84
2023-03-08T00:54:37.087Z,56.65
2023-03-08T00:57:03.661Z,57.24
2023-03-08T00:59:31.994Z,57.52
2023-03-08T01:01:58.820Z,57.42
2023-03-08T01:04:25.365Z,57.82
2023-03-08T01:06:51.913Z,58.57
2023-03-08T01:09:18.404Z,58.75
2023-03-08T01:11:45.059Z,58.92
2023-03-08T01:14:13.244Z,58.38
2023-03-08T01:16:40.927Z,58.28
2023-03-08T01:19:07.487Z,57.81
2023-03-08T01:21:34.387Z,57.68
2023-03-08T01:24:00.978Z,57.55
2023-03-08T01:26:28.153Z,57.91
2023-03-08T01:28:55.174Z,57.67
2023-03-08T01:31:25.509Z,58.57
2023-03-08T01:33:53.548Z,58.72
2023-03-08T01:36:21.292Z,58.38
2023-03-08T01:38:48.072Z,58.89
2023-03-08T01:41:16.661Z,58.95
2023-03-08T01:43:43.199Z,60.37
2023-03-08T01:46:22.175Z,59.85
2023-03-08T01:49:00.661Z,60.14
2023-03-08T01:51:34.142Z,60.46
2023-03-08T01:54:01.275Z,60.09
2023-03-08T01:56:27.839Z,60.50
2023-03-08T01:58:56.047Z,60.32
2023-03-08T02:01:22.895Z,60.40
2023-03-08T02:03:51.441Z,60.44
2023-03-08T02:06:19.752Z,60.11
2023-03-08T02:08:46.300Z,60.74
2023-03-08T02:11:12.969Z,60.99
2023-03-08T02:13:40.063Z,60.96
2023-03-08T02:16:08.064Z,61.18
2023-03-08T02:18:34.714Z,61.12
2023-03-08T02:21:01.234Z,61.59
2023-03-08T02:23:27.868Z,61.63
2023-03-08T02:25:57.997Z,61.33
2023-03-08T02:28:25.289Z,62.09
2023-03-08T02:30:52.658Z,61.95
2023-03-08T02:33:19.234Z,61.79
2023-03-08T02:35:45.938Z,62.19
2023-03-08T02:38:12.879Z,62.66
2023-03-08T02:40:39.394Z,62.34
2023-03-08T02:43:05.965Z,62.46
2023-03-08T02:45:34.619Z,62.57
2023-03-08T02:48:01.797Z,62.12
2023-03-08T02:50:29.317Z,61.52
2023-03-08T02:52:55.828Z,61.49
2023-03-08T02:55:22.411Z,62.02
2023-03-08T02:57:49.167Z,62.03
2023-03-08T03:00:17.710Z,61.22
2023-03-08T03:02:44.302Z,61.63
2023-03-08T03:05:13.770Z,61.41
2023-03-08T03:07:42.691Z,60.86
2023-03-08T03:10:14.510Z,61.14
2023-03-08T03:12:42.034Z,60.70
2023-03-08T03:15:11.892Z,60.96
2023-03-08T03:17:40.426Z,61.21
2023-03-08T03:20:09.147Z,60.79
2023-03-08T03:22:36.190Z,60.98
2023-03-08T03:25:04.321Z,60.62
2023-03-08T03:27:31.112Z,60.47
2023-03-08T03:29:57.709Z,60.17
2023-03-08T03:32:24.978Z,60.30
2023-03-08T03:34:51.539Z,59.78
2023-03-08T03:37:20.489Z,60.26
2023-03-08T03:39:47.291Z,60.03
2023-03-08T03:42:16.419Z,59.72
2023-03-08T03:44:50.132Z,59.99
2023-03-08T03:47:20.166Z,60.30
2023-03-08T03:49:48.667Z,60.16
2023-03-08T03:52:17.087Z,59.99
2023-03-08T03:54:51.389Z,60.25
2023-03-08T03:57:19.619Z,60.15
2023-03-08T03:59:46.415Z,61.39
2023-03-08T04:02:13.426Z,61.73
2023-03-08T04:04:51.661Z,62.10
2023-03-08T04:07:21.972Z,62.28
2023-03-08T04:09:55.356Z,62.67
2023-03-08T04:12:21.882Z,63.32
2023-03-08T04:14:49.066Z,62.87
2023-03-08T04:17:17.048Z,63.01
2023-03-08T04:19:49.159Z,63.24
2023-03-08T04:22:16.174Z,63.64
2023-03-08T04:24:48.075Z,62.41
2023-03-08T04:27:20.370Z,61.84
2023-03-08T04:29:49.879Z,61.94
2023-03-08T04:32:17.281Z,62.02
2023-03-08T04:34:48.489Z,61.55
2023-03-08T04:37:18.681Z,61.85
2023-03-08T04:39:48.994Z,61.43
2023-03-08T04:42:16.756Z,62.06
2023-03-08T04:44:44.488Z,61.76
2023-03-08T04:47:12.856Z,61.88
2023-03-08T04:49:44.431Z,61.85
2023-03-08T04:52:10.994Z,61.63
2023-03-08T04:54:39.059Z,61.65
2023-03-08T04:57:15.065Z,61.63
2023-03-08T04:59:43.414Z,61.69
2023-03-08T05:02:10.311Z,61.57
2023-03-08T05:04:37.658Z,61.32
2023-03-08T05:07:04.244Z,60.60
2023-03-08T05:09:33.880Z,60.63
2023-03-08T05:12:01.525Z,61.06
2023-03-08T05:14:38.515Z,60.49
2023-03-08T05:17:05.236Z,60.24
2023-03-08T05:19:34.338Z,60.22
2023-03-08T05:22:01.036Z,60.05
2023-03-08T05:24:27.909Z,59.68
2023-03-08T05:26:56.700Z,59.44
2023-03-08T05:29:23.218Z,59.32
2023-03-08T05:31:50.515Z,59.66
2023-03-08T05:34:17.876Z,59.67
2023-03-08T05:36:47.159Z,60.11
2023-03-08T05:39:13.712Z,60.20
2023-03-08T05:41:53.929Z,60.02
2023-03-08T05:44:26.874Z,60.55
2023-03-08T05:46:53.838Z,59.89
2023-03-08T05:49:21.671Z,59.91
2023-03-08T05:51:48.630Z,59.37
2023-03-08T05:54:15.595Z,59.36
2023-03-08T05:56:44.681Z,59.40
2023-03-08T05:59:21.666Z,59.42
2023-03-08T06:01:49.252Z,59.58
2023-03-08T06:04:23.159Z,59.79
2023-03-08T06:06:51.021Z,59.60
2023-03-08T06:09:19.723Z,59.83
2023-03-08T06:11:46.832Z,59.56
2023-03-08T06:14:13.976Z,59.06
2023-03-08T06:16:41.268Z,59.38
2023-03-08T06:19:07.817Z,59.41
2023-03-08T06:21:35.647Z,59.07
2023-03-08T06:24:04.056Z,59.47
2023-03-08T06:26:31.560Z,59.98
2023-03-08T06:28:58.088Z,59.38
2023-03-08T06:31:28.406Z,58.75
2023-03-08T06:33:55.543Z,59.21
2023-03-08T06:36:24.994Z,58.53
2023-03-08T06:38:51.713Z,58.89
2023-03-08T06:41:18.865Z,58.65
2023-03-08T06:43:49.172Z,58.76
2023-03-08T06:46:20.370Z,58.83
2023-03-08T06:48:48.544Z,58.35
2023-03-08T06:51:16.215Z,58.47
2023-03-08T06:53:44.603Z,58.60
2023-03-08T06:56:12.693Z,58.63
2023-03-08T06:58:40.103Z,58.43
2023-03-08T07:01:06.768Z,58.78
2023-03-08T07:03:33.481Z,58.12
2023-03-08T07:06:04.486Z,58.33
2023-03-08T07:08:31.476Z,58.51
2023-03-08T07:10:58.877Z,58.39
2023-03-08T07:13:25.419Z,58.56
2023-03-08T07:15:52.259Z,58.61
2023-03-08T07:18:19.320Z,58.34
2023-03-08T07:20:46.083Z,58.36
2023-03-08T07:23:12.568Z,58.40
2023-03-08T07:25:40.210Z,58.41
2023-03-08T07:28:06.786Z,58.22
2023-03-08T07:30:33.376Z,57.95
2023-03-08T07:32:59.917Z,58.63
2023-03-08T07:35:26.465Z,58.41
2023-03-08T07:37:53.046Z,58.22
2023-03-08T07:40:19.639Z,58.36
2023-03-08T07:42:46.677Z,58.10
2023-03-08T07:45:27.587Z,57.58
2023-03-08T07:47:54.131Z,58.61
2023-03-08T07:50:20.970Z,58.63
2023-03-08T07:52:47.780Z,58.65
2023-03-08T07:55:14.523Z,58.25
2023-03-08T07:57:41.060Z,58.35
2023-03-08T08:00:07.835Z,58.62
2023-03-08T08:02:38.598Z,58.95
2023-03-08T08:05:05.313Z,59.99
2023-03-08T08:07:31.860Z,59.63
2023-03-08T08:09:58.370Z,59.41
2023-03-08T08:12:24.878Z,60.20
2023-03-08T08:14:52.491Z,60.17
2023-03-08T08:17:22.161Z,60.14
2023-03-08T08:19:48.654Z,59.67
2023-03-08T08:22:15.136Z,59.65
2023-03-08T08:24:41.719Z,59.60
2023-03-08T08:27:08.236Z,59.47
2023-03-08T08:29:34.724Z,59.63
2023-03-08T08:32:02.462Z,60.86
2023-03-08T08:34:28.950Z,61.07
2023-03-08T08:36:55.538Z,61.36
2023-03-08T08:39:22.057Z,61.66
2023-03-08T08:41:49.563Z,62.32
2023-03-08T08:44:16.090Z,63.86
2023-03-08T08:46:42.594Z,66.43
2023-03-08T08:49:09.786Z,67.34
2023-03-08T08:51:36.346Z,68.43
2023-03-08T08:54:03.144Z,68.87
2023-03-08T08:56:29.874Z,70.21
2023-03-08T08:59:00.822Z,69.40
2023-03-08T09:01:28.536Z,70.77
2023-03-08T09:03:55.170Z,71.53
2023-03-08T09:06:22.218Z,73.21
2023-03-08T09:08:49.474Z,70.89
2023-03-08T09:11:16.011Z,72.94
2023-03-08T09:13:42.560Z,73.24
2023-03-08T09:16:18.575Z,71.81
2023-03-08T09:18:45.123Z,72.13
2023-03-08T09:21:11.692Z,72.03
2023-03-08T09:23:38.180Z,72.43
2023-03-08T09:26:06.223Z,72.41
2023-03-08T09:28:33.042Z,72.68
2023-03-08T09:30:59.966Z,73.36
2023-03-08T09:33:26.499Z,71.89
2023-03-08T09:35:56.948Z,73.58
2023-03-08T09:38:23.588Z,74.76
2023-03-08T09:40:54.317Z,73.52
2023-03-08T09:43:23.465Z,73.96
2023-03-08T09:45:51.868Z,74.44
2023-03-08T09:48:19.998Z,74.62
2023-03-08T09:50:50.207Z,74.76
2023-03-08T09:53:32.357Z,75.16
2023-03-08T09:56:04.952Z,74.30
2023-03-08T09:58:49.108Z,73.56
2023-03-08T10:01:25.007Z,73.32
2023-03-08T10:03:54.685Z,73.39
2023-03-08T10:06:39.358Z,74.07
2023-03-08T10:09:05.827Z,73.16
2023-03-08T10:11:50.744Z,73.20
2023-03-08T10:14:20.588Z,72.82
2023-03-08T10:16:49.403Z,72.10
2023-03-08T10:19:23.621Z,72.71
2023-03-08T10:21:51.335Z,73.03
2023-03-08T10:24:26.799Z,72.03
2023-03-08T10:26:54.703Z,71.48
2023-03-08T10:29:21.633Z,71.91
2023-03-08T10:31:48.611Z,72.19
2023-03-08T10:34:16.812Z,71.83
2023-03-08T10:37:07.399Z,70.17
2023-03-08T10:39:35.640Z,70.51
2023-03-08T10:42:02.953Z,70.90
2023-03-08T10:44:31.304Z,70.98
2023-03-08T10:46:57.862Z,70.49
2023-03-08T10:49:27.767Z,69.90
2023-03-08T10:51:55.874Z,70.51
2023-03-08T10:54:22.453Z,70.24
2023-03-08T10:56:51.715Z,70.16
2023-03-08T10:59:21.369Z,69.94
2023-03-08T11:01:55.682Z,70.26
2023-03-08T11:04:23.047Z,70.71
2023-03-08T11:06:50.406Z,71.04
2023-03-08T11:09:21.147Z,71.11
2023-03-08T11:11:47.702Z,70.90
2023-03-08T11:14:14.223Z,70.79
2023-03-08T11:16:50.147Z,70.67
2023-03-08T11:19:25.604Z,69.55
2023-03-08T11:21:52.135Z,68.71
2023-03-08T11:24:23.319Z,67.35
2023-03-08T11:26:56.546Z,67.51
2023-03-08T11:29:41.993Z,68.19
2023-03-08T11:32:11.343Z,68.61
2023-03-08T11:34:43.783Z,68.77
2023-03-08T11:37:13.644Z,69.09
2023-03-08T11:39:43.508Z,69.16
2023-03-08T11:42:12.965Z,69.19
2023-03-08T11:44:46.252Z,69.07
2023-03-08T11:47:33.241Z,69.35
2023-03-08T11:50:06.193Z,69.15
2023-03-08T11:52:43.366Z,68.54
2023-03-08T11:55:09.872Z,68.10
2023-03-08T11:57:37.938Z,68.51
2023-03-08T12:00:23.207Z,68.46
2023-03-08T12:02:49.889Z,67.88
2023-03-08T12:05:29.678Z,67.99
2023-03-08T12:08:03.405Z,67.62
2023-03-08T12:10:51.281Z,67.46
2023-03-08T12:13:22.050Z,67.41
2023-03-08T12:15:53.479Z,67.64
2023-03-08T12:18:20.238Z,67.09
2023-03-08T12:20:46.717Z,66.74
2023-03-08T12:23:19.091Z,66.86
2023-03-08T12:25:45.841Z,66.79
2023-03-08T12:28:17.556Z,66.87
2023-03-08T12:31:03.098Z,66.50
2023-03-08T12:33:32.416Z,66.51
2023-03-08T12:36:03.719Z,66.57
2023-03-08T12:38:30.377Z,66.53
2023-03-08T12:40:57.099Z,66.05
2023-03-08T12:43:23.553Z,66.09
2023-03-08T12:45:59.742Z,65.98
2023-03-08T12:48:37.657Z,66.54
2023-03-08T12:51:13.359Z,66.62
2023-03-08T12:53:52.029Z,66.83
2023-03-08T12:56:26.994Z,66.72
2023-03-08T12:58:55.374Z,66.51
2023-03-08T13:01:31.400Z,66.27
2023-03-08T13:03:58.002Z,66.15
2023-03-08T13:06:25.674Z,65.94
2023-03-08T13:08:54.057Z,66.10
2023-03-08T13:11:20.567Z,66.49
2023-03-08T13:13:57.318Z,66.66
2023-03-08T13:16:23.944Z,66.07
2023-03-08T13:18:53.349Z,66.29
2023-03-08T13:21:35.371Z,66.45
2023-03-08T13:24:16.990Z,66.37
2023-03-08T13:27:02.423Z,66.23
2023-03-08T13:29:30.310Z,65.97
2023-03-08T13:31:56.843Z,65.77
2023-03-08T13:34:24.907Z,65.88
2023-03-08T13:36:51.440Z,65.33
2023-03-08T13:39:21.906Z,65.26
2023-03-08T13:41:48.788Z,64.96
2023-03-08T13:44:19.235Z,64.56
2023-03-08T13:46:49.398Z,64.54
2023-03-08T13:49:17.049Z,64.49
2023-03-08T13:51:44.165Z,64.67
2023-03-08T13:54:13.252Z,65.25
2023-03-08T13:56:40.333Z,65.49
2023-03-08T13:59:06.893Z,65.31
2023-03-08T14:01:33.496Z,65.50
2023-03-08T14:04:01.396Z,66.00
2023-03-08T14:06:30.099Z,65.91
2023-03-08T14:08:59.565Z,65.83
2023-03-08T14:11:30.278Z,65.60
2023-03-08T14:13:57.198Z,65.58
2023-03-08T14:16:42.146Z,65.04
2023-03-08T14:19:10.033Z,64.97
2023-03-08T14:21:36.740Z,64.75
2023-03-08T14:24:06.802Z,64.85
2023-03-08T14:26:40.414Z,65.11
2023-03-08T14:29:11.883Z,65.13
2023-03-08T14:31:39.528Z,65.20
2023-03-08T14:34:16.981Z,65.56
2023-03-08T14:36:46.827Z,66.60
2023-03-08T14:39:19.989Z,68.65
2023-03-08T14:41:46.523Z,68.44
2023-03-08T14:44:39.547Z,68.22
2023-03-08T14:47:10.020Z,67.17
2023-03-08T14:49:36.529Z,66.73
2023-03-08T14:52:03.139Z,66.25
2023-03-08T14:54:33.750Z,65.78
2023-03-08T14:57:19.810Z,68.72
2023-03-08T14:59:46.448Z,72.18
2023-03-08T15:02:14.114Z,73.47
2023-03-08T15:04:41.204Z,74.02
2023-03-08T15:07:08.306Z,73.76
2023-03-08T15:09:34.832Z,73.40
2023-03-08T15:12:01.700Z,73.14
2023-03-08T15:14:28.951Z,72.42
2023-03-08T15:16:55.459Z,71.67
2023-03-08T15:19:21.965Z,71.96
2023-03-08T15:21:48.507Z,71.96
2023-03-08T15:24:17.468Z,71.65
2023-03-08T15:26:44.249Z,71.13
2023-03-08T15:29:22.922Z,70.45
2023-03-08T15:31:49.515Z,70.05
2023-03-08T15:34:16.048Z,69.86
2023-03-08T15:36:42.598Z,70.07
2023-03-08T15:39:10.606Z,69.27
2023-03-08T15:41:37.150Z,69.43
2023-03-08T15:44:03.746Z,69.50
2023-03-08T15:46:30.329Z,69.52
2023-03-08T15:48:56.881Z,69.90
2023-03-08T15:51:24.811Z,70.01
2023-03-08T15:53:51.311Z,70.03
2023-03-08T15:56:17.802Z,71.43
2023-03-08T15:58:44.293Z,71.24
2023-03-08T16:01:12.062Z,70.99
2023-03-08T16:03:38.599Z,70.77
2023-03-08T16:06:09.192Z,70.63
2023-03-08T16:08:36.672Z,70.32
2023-03-08T16:11:09.886Z,70.18
2023-03-08T16:13:36.864Z,70.32
2023-03-08T16:16:03.950Z,70.13
2023-03-08T16:18:30.880Z,70.44
2023-03-08T16:20:57.813Z,70.25
2023-03-08T16:23:24.374Z,70.35
2023-03-08T16:26:14.247Z,70.08
2023-03-08T16:28:43.493Z,69.88
2023-03-08T16:31:10.042Z,70.18
2023-03-08T16:33:36.776Z,73.99
2023-03-08T16:36:03.837Z,76.23
2023-03-08T16:38:30.675Z,78.24
2023-03-08T16:41:11.612Z,79.85
2023-03-08T16:43:46.248Z,80.20
2023-03-08T16:46:17.642Z,80.13
2023-03-08T16:48:44.253Z,80.15
2023-03-08T16:51:13.716Z,79.68
2023-03-08T16:53:40.377Z,79.40
2023-03-08T16:56:06.919Z,78.89
2023-03-08T16:58:33.412Z,78.74
2023-03-08T17:00:59.968Z,78.46
2023-03-08T17:03:26.510Z,78.21
2023-03-08T17:05:53.116Z,77.62
2023-03-08T17:08:19.683Z,78.36
2023-03-08T17:10:46.220Z,78.92
2023-03-08T17:13:12.715Z,79.58
2023-03-08T17:15:40.131Z,79.46
2023-03-08T17:18:06.924Z,79.88
2023-03-08T17:20:33.464Z,79.57
2023-03-08T17:23:00.575Z,79.72
2023-03-08T17:25:27.512Z,79.27
2023-03-08T17:27:54.003Z,79.37
2023-03-08T17:30:20.549Z,79.08
2023-03-08T17:32:47.515Z,79.11
2023-03-08T17:35:14.020Z,78.74
2023-03-08T17:37:41.854Z,78.82
2023-03-08T17:40:11.818Z,78.71
2023-03-08T17:42:38.422Z,78.55
2023-03-08T17:45:08.387Z,78.50
2023-03-08T17:47:35.729Z,78.58
2023-03-08T17:50:02.533Z,78.50
2023-03-08T17:52:29.139Z,78.06
2023-03-08T17:54:55.694Z,78.15
2023-03-08T17:57:22.318Z,78.20
2023-03-08T17:59:48.945Z,78.34
2023-03-08T18:02:16.675Z,78.30
2023-03-08T18:04:47.136Z,77.88
2023-03-08T18:07:14.754Z,78.18
2023-03-08T18:09:41.320Z,78.16
2023-03-08T18:12:11.598Z,78.43
2023-03-08T18:14:40.188Z,78.40
2023-03-08T18:17:06.962Z,78.32
2023-03-08T18:19:33.518Z,78.31
2023-03-08T18:22:00.062Z,77.96
2023-03-08T18:24:27.499Z,78.26
2023-03-08T18:26:54.197Z,78.11
2023-03-08T18:29:20.681Z,78.12
2023-03-08T18:31:47.722Z,77.81
2023-03-08T18:34:14.933Z,78.00
2023-03-08T18:36:41.475Z,77.99
2023-03-08T18:39:10.438Z,77.11
2023-03-08T18:41:37.118Z,77.49
2023-03-08T18:44:03.945Z,77.70
2023-03-08T18:46:31.209Z,78.24
2023-03-08T18:48:58.824Z,77.57
2023-03-08T18:51:25.386Z,77.65
2023-03-08T18:53:53.229Z,77.31
2023-03-08T18:56:19.800Z,77.27
2023-03-08T18:58:46.510Z,77.25
2023-03-08T19:01:14.066Z,77.25
2023-03-08T19:03:40.897Z,76.84
2023-03-08T19:06:07.426Z,77.20
2023-03-08T19:08:34.008Z,78.53
2023-03-08T19:11:09.309Z,77.84
2023-03-08T19:13:36.010Z,77.86
2023-03-08T19:16:02.773Z,77.78
2023-03-08T19:18:30.046Z,77.32
2023-03-08T19:20:59.989Z,77.11
2023-03-08T19:23:26.728Z,77.26
2023-03-08T19:26:11.574Z,79.13
2023-03-08T19:28:38.397Z,81.23
2023-03-08T19:31:04.925Z,82.19
2023-03-08T19:33:31.970Z,83.44
2023-03-08T19:35:58.557Z,83.11
2023-03-08T19:38:25.079Z,82.86
2023-03-08T19:40:51.562Z,82.42
2023-03-08T19:43:18.143Z,82.94
2023-03-08T19:45:48.272Z,82.88
2023-03-08T19:48:14.840Z,83.10
2023-03-08T19:50:44.479Z,83.20
2023-03-08T19:53:11.169Z,82.99
2023-03-08T19:55:37.854Z,83.72
2023-03-08T19:58:06.197Z,83.80
2023-03-08T20:00:32.847Z,83.95
2023-03-08T20:03:02.259Z,84.77
2023-03-08T20:05:29.034Z,85.00
2023-03-08T20:07:55.586Z,85.38
2023-03-08T20:10:22.146Z,85.59
2023-03-08T20:12:49.945Z,85.57
2023-03-08T20:15:16.448Z,85.66
2023-03-08T20:17:43.189Z,85.91
2023-03-08T20:20:10.342Z,86.41
2023-03-08T20:22:36.874Z,86.57
2023-03-08T20:25:03.451Z,87.54
2023-03-08T20:27:30.017Z,88.58
2023-03-08T20:29:56.611Z,89.18
2023-03-08T20:32:23.438Z,90.02
2023-03-08T20:34:49.990Z,90.32
2023-03-08T20:37:16.568Z,90.78
2023-03-08T20:39:44.831Z,91.43
2023-03-08T20:42:11.339Z,91.64
2023-03-08T20:44:37.844Z,92.12
2023-03-08T20:47:04.365Z,92.49
2023-03-08T20:49:30.873Z,92.73
2023-03-08T20:51:57.377Z,93.26
2023-03-08T20:54:23.860Z,93.22
2023-03-08T20:56:50.666Z,93.35
2023-03-08T20:59:20.357Z,93.06
2023-03-08T21:01:47.122Z,93.15
2023-03-08T21:04:13.717Z,93.49
2023-03-08T21:06:40.248Z,93.58
2023-03-08T21:09:06.906Z,93.75
2023-03-08T21:11:33.430Z,93.93
2023-03-08T21:13:59.946Z,93.97
2023-03-08T21:16:27.094Z,93.94
2023-03-08T21:18:58.428Z,93.69
2023-03-08T21:21:32.376Z,94.06
2023-03-08T21:23:59.551Z,93.94
2023-03-08T21:26:26.394Z,93.69
2023-03-08T21:28:53.276Z,92.96
2023-03-08T21:31:23.481Z,93.28
2023-03-08T21:33:50.980Z,93.24
2023-03-08T21:36:17.648Z,93.68
2023-03-08T21:38:44.272Z,94.10
2023-03-08T21:41:37.662Z,94.49
2023-03-08T21:44:06.084Z,94.64
2023-03-08T21:46:32.814Z,94.77
2023-03-08T21:48:59.328Z,94.35
2023-03-08T21:51:26.228Z,94.39
2023-03-08T21:53:52.737Z,94.43
2023-03-08T21:56:19.808Z,95.12
2023-03-08T21:58:46.351Z,95.61
2023-03-08T22:01:22.993Z,96.08
2023-03-08T22:03:50.048Z,96.06
2023-03-08T22:06:16.603Z,96.06
2023-03-08T22:08:43.106Z,95.94
2023-03-08T22:11:09.610Z,95.85
2023-03-08T22:13:36.083Z,96.10
2023-03-08T22:16:02.652Z,95.93
2023-03-08T22:18:29.678Z,95.85
2023-03-08T22:20:56.218Z,95.91
2023-03-08T22:23:22.839Z,95.72
2023-03-08T22:25:49.395Z,95.82
2023-03-08T22:28:15.937Z,95.67
2023-03-08T22:30:42.438Z,95.70
2023-03-08T22:33:09.090Z,95.61
2023-03-08T22:35:35.685Z,95.51
2023-03-08T22:38:02.232Z,95.81
2023-03-08T22:40:28.735Z,95.68
2023-03-08T22:42:55.221Z,95.69
2023-03-08T22:45:21.839Z,95.50
2023-03-08T22:47:48.384Z,95.77
2023-03-08T22:50:14.866Z,95.70
2023-03-08T22:52:41.430Z,95.33
2023-03-08T22:55:08.051Z,95.43
2023-03-08T22:57:36.115Z,95.35
2023-03-08T23:00:02.650Z,95.48
2023-03-08T23:02:31.258Z,95.42
2023-03-08T23:04:58.509Z,95.24
2023-03-08T23:07:25.037Z,95.18
2023-03-08T23:09:53.292Z,95.00
2023-03-08T23:12:19.853Z,95.02
2023-03-08T23:14:46.406Z,95.00
2023-03-08T23:17:13.292Z,95.11
2023-03-08T23:19:41.842Z,95.20
2023-03-08T23:22:08.366Z,95.08
2023-03-08T23:24:34.864Z,95.12
2023-03-08T23:27:03.387Z,95.20
2023-03-08T23:29:29.996Z,95.03
2023-03-08T23:31:56.560Z,95.30
2023-03-08T23:34:23.103Z,95.12
2023-03-08T23:36:49.580Z,95.28
2023-03-08T23:39:16.144Z,95.25
2023-03-08T23:41:42.708Z,95.50
2023-03-08T23:44:09.781Z,95.23
2023-03-08T23:46:36.337Z,95.00
2023-03-08T23:49:02.985Z,95.05
2023-03-08T23:51:30.425Z,94.89
2023-03-08T23:53:57.673Z,94.93
2023-03-08T23:56:26.919Z,94.67
2023-03-08T23:58:57.153Z,94.43
